Time;durP1;ratioP1;P1;durP2;ratioP2;P2;SDS_P1;SDS_P2;PMS_P1;PMS_P2;Temp;Humidity;BMP_temperature;BMP_pressure;BME280_temperature;BME280_humidity;BME280_pressure;Samples;Min_cycle;Max_cycle;Signal;HPM_P1;HPM_P2
2023/12/09 00:00:45;;;;;;;50.22;30.77;;;;;;;;;;6094009;23;20006;-79
2023/12/09 00:03:10;;;;;;;52.60;28.77;;;;;;;;;;6094360;23;20012;-78
2023/12/09 00:05:36;;;;;;;52.42;30.48;;;;;;;;;;6094405;23;19998;-77
2023/12/09 00:08:01;;;;;;;49.58;29.98;;;;;;;;;;6120522;23;19998;-78
2023/12/09 00:10:27;;;;;;;51.90;30.80;;;;;;;;;;6120246;23;20338;-77
2023/12/09 00:12:53;;;;;;;53.85;30.30;;;;;;;;;;6119831;23;20073;-78
2023/12/09 00:15:18;;;;;;;55.90;32.95;;;;;;;;;;6120260;23;20076;-78
2023/12/09 00:17:43;;;;;;;49.60;29.38;;;;;;;;;;6093790;23;20001;-78
2023/12/09 00:20:09;;;;;;;56.40;33.78;;;;;;;;;;6096755;23;20006;-79
2023/12/09 00:22:34;;;;;;;49.58;29.02;;;;;;;;;;6124922;23;20430;-78
2023/12/09 00:24:59;;;;;;;50.13;30.92;;;;;;;;;;6121776;23;20009;-77
2023/12/09 00:27:25;;;;;;;42.13;25.45;;;;;;;;;;6121419;23;20002;-77
2023/12/09 00:29:50;;;;;;;42.42;25.42;;;;;;;;;;6095453;23;20030;-76
2023/12/09 00:32:15;;;;;;;40.85;25.95;;;;;;;;;;6122445;23;20002;-79
2023/12/09 00:34:41;;;;;;;45.50;28.75;;;;;;;;;;6121561;23;20308;-77
2023/12/09 00:37:06;;;;;;;49.65;30.08;;;;;;;;;;6096638;23;20002;-75
2023/12/09 00:39:31;;;;;;;55.35;33.67;;;;;;;;;;6095200;23;20382;-80
2023/12/09 00:41:57;;;;;;;81.25;44.08;;;;;;;;;;6121808;23;20093;-75
2023/12/09 00:44:23;;;;;;;187.70;83.05;;;;;;;;;;6122508;23;19998;-78
2023/12/09 00:46:49;;;;;;;104.55;54.28;;;;;;;;;;6095672;23;19998;-78
2023/12/09 00:49:14;;;;;;;218.90;97.90;;;;;;;;;;6121473;23;20006;-78
2023/12/09 00:51:40;;;;;;;201.43;92.40;;;;;;;;;;6096127;23;20440;-78
2023/12/09 00:54:06;;;;;;;93.63;52.17;;;;;;;;;;6095811;23;19994;-77
2023/12/09 00:56:31;;;;;;;199.88;97.97;;;;;;;;;;6095900;23;20006;-78
2023/12/09 00:58:56;;;;;;;152.90;85.03;;;;;;;;;;6095579;23;20374;-77
2023/12/09 01:01:22;;;;;;;53.85;32.25;;;;;;;;;;6095272;23;20002;-78
2023/12/09 01:03:47;;;;;;;52.40;30.52;;;;;;;;;;6095254;23;20420;-78
2023/12/09 01:06:12;;;;;;;53.78;30.63;;;;;;;;;;6095753;23;20348;-77
2023/12/09 01:08:37;;;;;;;57.75;33.13;;;;;;;;;;6095470;23;19998;-77
2023/12/09 01:11:03;;;;;;;54.63;31.27;;;;;;;;;;6095654;23;20057;-79
2023/12/09 01:13:30;;;;;;;75.75;43.08;;;;;;;;;;6095827;23;20077;-78
2023/12/09 01:15:55;;;;;;;55.30;32.95;;;;;;;;;;6121846;23;20342;-78
2023/12/09 01:18:20;;;;;;;78.43;45.60;;;;;;;;;;6095619;23;20002;-77
2023/12/09 01:20:46;;;;;;;86.20;50.80;;;;;;;;;;6095697;23;20049;-77
2023/12/09 01:23:11;;;;;;;76.40;42.40;;;;;;;;;;6095758;23;20029;-78
2023/12/09 01:25:36;;;;;;;109.75;59.90;;;;;;;;;;6122308;23;20006;-78
2023/12/09 01:28:02;;;;;;;74.13;40.70;;;;;;;;;;6095583;23;19998;-77
2023/12/09 01:30:27;;;;;;;65.93;39.20;;;;;;;;;;6121814;23;20001;-77
2023/12/09 01:32:52;;;;;;;82.78;46.55;;;;;;;;;;6122060;23;20005;-77
2023/12/09 01:35:18;;;;;;;88.60;49.30;;;;;;;;;;6095605;23;20006;-77
2023/12/09 01:37:43;;;;;;;104.43;52.55;;;;;;;;;;6095618;23;20020;-77
2023/12/09 01:40:08;;;;;;;92.00;50.85;;;;;;;;;;6094625;23;20049;-77
2023/12/09 01:42:35;;;;;;;116.15;58.00;;;;;;;;;;6121099;23;20022;-76
2023/12/09 01:45:00;;;;;;;79.93;41.35;;;;;;;;;;6095463;23;20335;-77
2023/12/09 01:47:25;;;;;;;92.43;41.78;;;;;;;;;;6121573;23;19997;-77
2023/12/09 01:49:51;;;;;;;66.80;35.78;;;;;;;;;;6121178;23;20338;-78
2023/12/09 01:52:17;;;;;;;64.93;38.30;;;;;;;;;;6095455;23;20078;-78
2023/12/09 01:54:42;;;;;;;83.40;45.85;;;;;;;;;;6094804;23;20013;-79
2023/12/09 01:57:08;;;;;;;84.72;46.85;;;;;;;;;;6095428;23;20371;-78
2023/12/09 01:59:33;;;;;;;79.88;43.08;;;;;;;;;;6095385;23;20009;-79
2023/12/09 02:01:59;;;;;;;83.15;43.47;;;;;;;;;;6095426;23;20474;-78
2023/12/09 02:04:24;;;;;;;88.90;45.70;;;;;;;;;;6095643;23;20315;-78
2023/12/09 02:06:50;;;;;;;187.35;94.25;;;;;;;;;;6095232;23;20328;-80
2023/12/09 02:09:18;;;;;;;289.52;143.88;;;;;;;;;;6095389;23;19997;-76
2023/12/09 02:12:05;;;;;;;119.75;67.65;;;;;;;;;;6094616;23;19998;-78
2023/12/09 02:14:42;;;;;;;209.55;105.75;;;;;;;;;;6096664;23;20009;-78
2023/12/09 02:17:20;;;;;;;461.73;202.27;;;;;;;;;;6095036;23;20006;-76
2023/12/09 02:19:46;;;;;;;116.43;58.92;;;;;;;;;;6114375;23;20457;-78
2023/12/09 02:22:11;;;;;;;126.63;61.03;;;;;;;;;;6121009;23;19994;-78
2023/12/09 02:24:36;;;;;;;122.63;60.88;;;;;;;;;;6120883;23;19998;-79
2023/12/09 02:27:12;;;;;;;465.88;237.52;;;;;;;;;;6095038;23;20014;-78
2023/12/09 02:29:58;;;;;;;263.30;125.20;;;;;;;;;;6095133;23;19997;-78
2023/12/09 02:32:25;;;;;;;224.15;110.38;;;;;;;;;;6119561;23;20002;-79
2023/12/09 02:34:51;;;;;;;98.70;51.67;;;;;;;;;;6121281;23;20076;-76
2023/12/09 02:37:18;;;;;;;100.82;54.38;;;;;;;;;;6121033;23;20025;-77
2023/12/09 02:39:44;;;;;;;118.82;59.88;;;;;;;;;;6094649;23;20005;-78
2023/12/09 02:42:10;;;;;;;151.07;77.53;;;;;;;;;;6120711;23;20443;-80
2023/12/09 02:44:36;;;;;;;122.05;63.33;;;;;;;;;;6096832;23;20016;-77
2023/12/09 02:47:01;;;;;;;127.75;66.65;;;;;;;;;;6122818;23;20033;-77
2023/12/09 02:49:26;;;;;;;134.20;72.30;;;;;;;;;;6094756;23;20042;-77
2023/12/09 02:51:52;;;;;;;123.55;69.20;;;;;;;;;;6094651;23;20424;-78
2023/12/09 02:54:18;;;;;;;127.90;69.57;;;;;;;;;;6094832;23;19994;-79
2023/12/09 02:56:43;;;;;;;127.40;68.38;;;;;;;;;;6094767;23;20013;-77
2023/12/09 02:59:09;;;;;;;112.13;62.15;;;;;;;;;;6094714;23;20069;-76
2023/12/09 03:01:34;;;;;;;110.13;60.65;;;;;;;;;;6120257;23;20009;-77
2023/12/09 03:03:59;;;;;;;108.18;60.33;;;;;;;;;;6094546;23;20505;-78
2023/12/09 03:06:24;;;;;;;93.90;52.00;;;;;;;;;;6094877;23;20010;-77
2023/12/09 03:08:50;;;;;;;74.85;42.70;;;;;;;;;;6120301;23;20439;-80
2023/12/09 03:11:15;;;;;;;63.28;36.30;;;;;;;;;;6094866;23;20002;-79
2023/12/09 03:13:40;;;;;;;83.70;46.08;;;;;;;;;;6094474;23;20005;-78
2023/12/09 03:16:06;;;;;;;79.30;44.17;;;;;;;;;;6120722;23;19997;-77
2023/12/09 03:18:31;;;;;;;86.40;45.72;;;;;;;;;;6120885;23;20422;-78
2023/12/09 03:20:57;;;;;;;88.50;47.40;;;;;;;;;;6119929;23;20009;-78
2023/12/09 03:23:22;;;;;;;83.25;44.00;;;;;;;;;;6120742;23;20017;-79
2023/12/09 03:25:47;;;;;;;79.93;43.25;;;;;;;;;;6119927;23;20458;-78
2023/12/09 03:28:13;;;;;;;63.97;37.17;;;;;;;;;;6120611;23;19998;-79
2023/12/09 03:30:38;;;;;;;63.10;37.30;;;;;;;;;;6094159;23;19994;-78
2023/12/09 03:33:03;;;;;;;68.65;39.50;;;;;;;;;;6094371;23;20030;-79
2023/12/09 03:35:28;;;;;;;65.03;38.97;;;;;;;;;;6120390;23;20423;-78
2023/12/09 03:37:54;;;;;;;79.28;44.40;;;;;;;;;;6095186;23;20033;-78
2023/12/09 03:40:19;;;;;;;88.38;43.92;;;;;;;;;;6094183;23;20084;-78
2023/12/09 03:42:44;;;;;;;115.10;49.22;;;;;;;;;;6093944;23;20032;-78
2023/12/09 03:45:10;;;;;;;146.43;53.25;;;;;;;;;;6094312;23;20311;-78
2023/12/09 03:47:35;;;;;;;106.78;45.72;;;;;;;;;;6119550;23;20013;-78
2023/12/09 03:50:00;;;;;;;87.53;42.60;;;;;;;;;;6094166;23;20002;-78
2023/12/09 03:52:26;;;;;;;76.88;42.38;;;;;;;;;;6120308;23;20424;-78
2023/12/09 03:54:51;;;;;;;81.72;43.00;;;;;;;;;;6094361;23;20250;-77
2023/12/09 03:57:16;;;;;;;92.20;46.35;;;;;;;;;;6094420;23;20450;-77
2023/12/09 03:59:41;;;;;;;94.97;47.72;;;;;;;;;;6093848;23;20010;-78
2023/12/09 04:02:07;;;;;;;97.55;51.72;;;;;;;;;;6095439;23;20080;-79
2023/12/09 04:04:32;;;;;;;96.15;52.15;;;;;;;;;;6122477;23;20057;-78
2023/12/09 04:06:58;;;;;;;95.32;47.97;;;;;;;;;;6096320;23;19994;-78
2023/12/09 04:09:24;;;;;;;85.80;46.50;;;;;;;;;;6096108;23;20002;-77
2023/12/09 04:11:49;;;;;;;81.68;46.30;;;;;;;;;;6122026;23;20427;-76
2023/12/09 04:14:14;;;;;;;73.32;41.50;;;;;;;;;;6122098;23;20005;-80
2023/12/09 04:16:42;;;;;;;67.13;37.78;;;;;;;;;;6096022;23;20009;-78
2023/12/09 04:19:07;;;;;;;70.47;38.15;;;;;;;;;;6096517;23;20012;-78
2023/12/09 04:21:32;;;;;;;66.65;36.65;;;;;;;;;;6096174;23;20708;-78
2023/12/09 04:23:58;;;;;;;62.13;34.65;;;;;;;;;;6122301;23;20434;-78
2023/12/09 04:26:24;;;;;;;69.13;36.88;;;;;;;;;;6096060;23;20018;-79
2023/12/09 04:28:50;;;;;;;79.35;39.78;;;;;;;;;;6122248;23;19994;-78
2023/12/09 04:31:15;;;;;;;78.82;41.55;;;;;;;;;;6121689;23;20001;-77
2023/12/09 04:33:44;;;;;;;81.60;42.08;;;;;;;;;;6095829;23;20082;-80
2023/12/09 04:36:09;;;;;;;73.10;40.78;;;;;;;;;;6120900;23;20009;-77
2023/12/09 04:38:35;;;;;;;80.55;43.05;;;;;;;;;;6121315;23;20005;-78
2023/12/09 04:41:01;;;;;;;90.93;47.92;;;;;;;;;;6121818;23;20185;-78
2023/12/09 04:43:27;;;;;;;98.50;51.45;;;;;;;;;;6095999;23;20009;-80
2023/12/09 04:45:52;;;;;;;123.78;63.00;;;;;;;;;;6096073;23;20089;-79
2023/12/09 04:48:18;;;;;;;104.07;51.67;;;;;;;;;;6096527;23;20036;-78
2023/12/09 04:50:43;;;;;;;92.10;46.75;;;;;;;;;;6121171;23;20002;-78
2023/12/09 04:53:09;;;;;;;84.13;43.90;;;;;;;;;;6096181;23;20481;-77
2023/12/09 04:55:34;;;;;;;81.53;42.88;;;;;;;;;;6096327;23;19998;-77
2023/12/09 04:58:00;;;;;;;82.05;43.47;;;;;;;;;;6121926;23;20422;-78
2023/12/09 05:00:26;;;;;;;98.85;49.50;;;;;;;;;;6121871;23;20006;-79
2023/12/09 05:02:52;;;;;;;94.78;54.35;;;;;;;;;;6095358;23;20069;-78
2023/12/09 05:05:17;;;;;;;92.72;50.40;;;;;;;;;;6096035;23;20029;-78
2023/12/09 05:07:42;;;;;;;115.47;63.20;;;;;;;;;;6122420;23;20001;-80
2023/12/09 05:10:08;;;;;;;159.13;82.53;;;;;;;;;;6098026;23;20053;-77
2023/12/09 05:12:33;;;;;;;136.90;73.15;;;;;;;;;;6096768;23;20021;-76
2023/12/09 05:14:59;;;;;;;124.43;66.80;;;;;;;;;;6095989;23;20128;-78
2023/12/09 05:17:24;;;;;;;122.95;67.05;;;;;;;;;;6122236;23;20514;-77
2023/12/09 05:19:49;;;;;;;116.05;65.20;;;;;;;;;;6095318;23;20006;-77
2023/12/09 05:22:16;;;;;;;140.02;72.07;;;;;;;;;;6095180;23;20442;-77
2023/12/09 05:24:41;;;;;;;189.70;95.95;;;;;;;;;;6121918;23;19998;-77
2023/12/09 05:27:06;;;;;;;196.98;98.88;;;;;;;;;;6095382;23;20002;-79
2023/12/09 05:29:32;;;;;;;105.72;57.45;;;;;;;;;;6095556;23;20009;-79
2023/12/09 05:31:57;;;;;;;94.60;52.65;;;;;;;;;;6095279;23;19994;-77
2023/12/09 05:34:22;;;;;;;97.25;52.38;;;;;;;;;;6121461;23;19998;-78
2023/12/09 05:36:48;;;;;;;84.25;46.40;;;;;;;;;;6121575;23;20001;-80
2023/12/09 05:39:14;;;;;;;68.97;40.40;;;;;;;;;;6095494;23;20008;-78
2023/12/09 05:41:43;;;;;;;74.57;42.65;;;;;;;;;;6095001;23;20022;-78
2023/12/09 05:44:08;;;;;;;74.43;41.50;;;;;;;;;;6094517;23;20033;-78
2023/12/09 05:46:36;;;;;;;84.63;44.67;;;;;;;;;;6120911;23;20459;-78
2023/12/09 05:49:02;;;;;;;77.43;43.22;;;;;;;;;;6095307;23;20073;-79
2023/12/09 05:51:27;;;;;;;73.15;40.75;;;;;;;;;;6095399;23;19994;-79
2023/12/09 05:53:52;;;;;;;72.03;42.65;;;;;;;;;;6094813;23;20029;-77
2023/12/09 05:56:18;;;;;;;96.25;51.72;;;;;;;;;;6121195;23;20001;-80
2023/12/09 05:58:44;;;;;;;92.53;50.90;;;;;;;;;;6120525;23;20026;-78
2023/12/09 06:01:10;;;;;;;117.15;55.15;;;;;;;;;;6094034;23;20006;-78
2023/12/09 06:03:35;;;;;;;166.55;75.97;;;;;;;;;;6121260;23;19997;-78
2023/12/09 06:06:00;;;;;;;158.13;74.60;;;;;;;;;;6121133;23;20009;-78
2023/12/09 06:08:26;;;;;;;157.88;76.05;;;;;;;;;;6095283;23;20005;-77
2023/12/09 06:10:51;;;;;;;171.15;85.45;;;;;;;;;;6120152;23;20076;-77
2023/12/09 06:13:16;;;;;;;163.52;86.05;;;;;;;;;;6095002;23;20002;-78
2023/12/09 06:15:42;;;;;;;145.90;79.05;;;;;;;;;;6095151;23;20526;-79
2023/12/09 06:18:07;;;;;;;136.68;75.15;;;;;;;;;;6120739;23;20006;-78
2023/12/09 06:20:32;;;;;;;166.38;87.97;;;;;;;;;;6121165;23;20017;-77
2023/12/09 06:22:58;;;;;;;146.82;80.18;;;;;;;;;;6120826;23;20014;-79
2023/12/09 06:25:23;;;;;;;238.50;120.72;;;;;;;;;;6094738;23;20002;-78
2023/12/09 06:27:48;;;;;;;226.05;118.13;;;;;;;;;;6120980;23;20005;-78
2023/12/09 06:30:14;;;;;;;286.35;136.25;;;;;;;;;;6092584;23;20002;-77
2023/12/09 06:32:39;;;;;;;556.42;234.95;;;;;;;;;;6093168;23;20435;-78
2023/12/09 06:35:05;;;;;;;200.70;109.78;;;;;;;;;;6120722;23;20078;-78
2023/12/09 06:37:30;;;;;;;198.13;115.25;;;;;;;;;;6120973;23;19997;-78
2023/12/09 06:39:55;;;;;;;221.45;124.53;;;;;;;;;;6094439;23;20430;-76
2023/12/09 06:42:21;;;;;;;222.05;122.70;;;;;;;;;;6094281;23;20045;-78
2023/12/09 06:44:46;;;;;;;200.73;111.10;;;;;;;;;;6120818;23;20001;-77
2023/12/09 06:47:11;;;;;;;186.20;105.15;;;;;;;;;;6120595;23;20403;-80
2023/12/09 06:49:37;;;;;;;197.55;109.32;;;;;;;;;;6094509;23;20048;-80
2023/12/09 06:52:02;;;;;;;210.98;112.72;;;;;;;;;;6094616;23;20002;-78
2023/12/09 06:54:27;;;;;;;594.38;335.23;;;;;;;;;;6120139;23;19998;-78
2023/12/09 06:56:53;;;;;;;407.33;219.85;;;;;;;;;;6094386;23;20002;-78
2023/12/09 06:59:18;;;;;;;424.42;227.48;;;;;;;;;;6094995;23;20038;-79
2023/12/09 07:01:43;;;;;;;468.15;286.65;;;;;;;;;;6094675;23;20374;-79
2023/12/09 07:04:09;;;;;;;308.15;200.18;;;;;;;;;;6120722;23;20422;-78
2023/12/09 07:06:35;;;;;;;268.75;170.43;;;;;;;;;;6094400;23;20053;-79
2023/12/09 07:09:02;;;;;;;214.38;132.65;;;;;;;;;;6094504;23;20052;-78
2023/12/09 07:11:28;;;;;;;172.50;106.72;;;;;;;;;;6120629;23;20426;-79
2023/12/09 07:13:53;;;;;;;225.30;128.90;;;;;;;;;;6120450;23;20001;-79
2023/12/09 07:16:19;;;;;;;187.93;108.45;;;;;;;;;;6070627;23;20017;-79
2023/12/09 07:18:46;;;;;;;191.48;111.82;;;;;;;;;;6094513;23;20009;-79
2023/12/09 07:21:11;;;;;;;232.55;122.07;;;;;;;;;;6093752;23;20060;-79
2023/12/09 07:23:36;;;;;;;223.38;126.47;;;;;;;;;;6094438;23;20345;-79
2023/12/09 07:26:02;;;;;;;366.90;170.48;;;;;;;;;;6120027;23;20037;-79
2023/12/09 07:28:29;;;;;;;184.57;97.28;;;;;;;;;;6093214;23;20080;-78
2023/12/09 07:30:54;;;;;;;171.13;105.22;;;;;;;;;;6120293;23;20048;-79
2023/12/09 07:33:19;;;;;;;399.85;182.63;;;;;;;;;;6119964;23;20025;-78
2023/12/09 07:35:44;;;;;;;232.82;115.13;;;;;;;;;;6122647;23;20006;-77
2023/12/09 07:38:10;;;;;;;136.85;80.13;;;;;;;;;;6122520;23;20092;-78
2023/12/09 07:40:35;;;;;;;154.68;90.55;;;;;;;;;;6119484;23;20006;-78
2023/12/09 07:43:02;;;;;;;154.35;88.28;;;;;;;;;;6093804;23;20025;-81
2023/12/09 07:45:27;;;;;;;129.20;77.85;;;;;;;;;;6070479;23;20010;-78
2023/12/09 07:47:52;;;;;;;130.00;81.10;;;;;;;;;;6094751;23;20002;-77
2023/12/09 07:50:17;;;;;;;115.22;67.70;;;;;;;;;;6120011;23;20025;-79
2023/12/09 07:52:43;;;;;;;110.40;68.63;;;;;;;;;;6120156;23;20338;-78
2023/12/09 07:55:09;;;;;;;109.15;67.63;;;;;;;;;;6094250;23;20085;-83
2023/12/09 07:57:36;;;;;;;93.97;56.40;;;;;;;;;;6091413;23;20010;-84
2023/12/09 08:00:01;;;;;;;93.15;57.30;;;;;;;;;;6065600;23;20065;-83
2023/12/09 08:02:26;;;;;;;88.82;56.03;;;;;;;;;;6090928;23;20006;-86
2023/12/09 08:04:51;;;;;;;96.88;59.15;;;;;;;;;;6117220;23;20002;-83
2023/12/09 08:07:17;;;;;;;98.35;57.22;;;;;;;;;;6091806;23;19994;-83
2023/12/09 08:09:42;;;;;;;92.22;54.60;;;;;;;;;;6090553;23;20026;-83
2023/12/09 08:12:09;;;;;;;94.65;58.08;;;;;;;;;;6090522;23;20461;-83
2023/12/09 08:14:34;;;;;;;86.00;54.63;;;;;;;;;;6116903;23;20069;-83
2023/12/09 08:16:59;;;;;;;87.70;54.95;;;;;;;;;;6091008;23;20434;-82
2023/12/09 08:19:25;;;;;;;96.45;59.95;;;;;;;;;;6090623;23;20002;-82
2023/12/09 08:21:50;;;;;;;89.05;56.75;;;;;;;;;;6090606;23;20289;-83
2023/12/09 08:24:16;;;;;;;95.78;60.65;;;;;;;;;;6091731;23;20017;-85
2023/12/09 08:26:42;;;;;;;94.57;57.17;;;;;;;;;;6091345;23;20061;-83
2023/12/09 08:29:11;;;;;;;85.57;54.53;;;;;;;;;;6117206;23;19998;-83
2023/12/09 08:31:36;;;;;;;105.57;64.13;;;;;;;;;;6090478;23;20449;-85
2023/12/09 08:34:01;;;;;;;101.57;63.55;;;;;;;;;;6091578;23;20032;-83
2023/12/09 08:36:27;;;;;;;97.10;59.97;;;;;;;;;;6091770;23;20427;-83
2023/12/09 08:38:52;;;;;;;87.53;55.67;;;;;;;;;;6117727;23;20025;-83
2023/12/09 08:41:17;;;;;;;136.35;76.22;;;;;;;;;;6117359;23;20018;-83
2023/12/09 08:43:43;;;;;;;99.57;56.72;;;;;;;;;;6090788;23;20002;-83
2023/12/09 08:46:08;;;;;;;79.25;48.28;;;;;;;;;;6091874;23;20010;-83
2023/12/09 08:48:33;;;;;;;79.88;48.63;;;;;;;;;;6091847;23;20005;-84
2023/12/09 08:50:59;;;;;;;62.95;39.97;;;;;;;;;;6119013;23;20072;-83
2023/12/09 08:53:24;;;;;;;48.85;31.63;;;;;;;;;;6093484;23;20033;-83
2023/12/09 08:55:49;;;;;;;40.40;26.98;;;;;;;;;;6093408;23;20006;-83
2023/12/09 08:58:16;;;;;;;37.03;25.42;;;;;;;;;;6093158;23;20041;-84
2023/12/09 09:00:41;;;;;;;35.63;23.38;;;;;;;;;;6092352;23;20010;-84
2023/12/09 09:03:06;;;;;;;35.05;22.77;;;;;;;;;;6092631;23;20446;-82
2023/12/09 09:05:32;;;;;;;33.47;22.42;;;;;;;;;;6118264;23;20021;-81
2023/12/09 09:07:57;;;;;;;35.08;23.83;;;;;;;;;;6092225;23;20132;-83
2023/12/09 09:10:22;;;;;;;28.80;20.23;;;;;;;;;;6118686;23;20002;-83
2023/12/09 09:12:48;;;;;;;26.90;18.42;;;;;;;;;;6091499;23;19998;-84
2023/12/09 09:15:14;;;;;;;32.10;21.52;;;;;;;;;;6091068;23;20109;-82
2023/12/09 09:17:39;;;;;;;24.00;16.58;;;;;;;;;;6092419;23;20481;-82
2023/12/09 09:20:05;;;;;;;23.42;16.35;;;;;;;;;;6093553;23;20005;-82
2023/12/09 09:22:30;;;;;;;19.23;14.68;;;;;;;;;;6092466;23;20029;-81
2023/12/09 09:24:58;;;;;;;21.83;15.68;;;;;;;;;;6091839;23;20070;-81
2023/12/09 09:27:23;;;;;;;20.92;14.90;;;;;;;;;;6092686;23;20013;-81
2023/12/09 09:29:48;;;;;;;19.95;14.50;;;;;;;;;;6091626;23;19998;-81
2023/12/09 09:32:14;;;;;;;23.40;16.00;;;;;;;;;;6090807;23;20419;-83
2023/12/09 09:34:41;;;;;;;22.10;14.82;;;;;;;;;;6091568;23;19998;-81
2023/12/09 09:37:08;;;;;;;25.83;16.52;;;;;;;;;;6119357;23;20081;-83
2023/12/09 09:39:33;;;;;;;27.17;16.50;;;;;;;;;;6095231;23;20013;-82
2023/12/09 09:42:06;;;;;;;26.65;17.85;;;;;;;;;;6094231;23;20021;-82
2023/12/09 09:44:33;;;;;;;26.38;19.02;;;;;;;;;;6094451;23;20603;-81
2023/12/09 09:46:59;;;;;;;26.40;17.27;;;;;;;;;;6095399;23;20010;-82
2023/12/09 09:49:28;;;;;;;29.95;19.05;;;;;;;;;;6121022;23;19994;-82
2023/12/09 09:51:56;;;;;;;30.67;20.10;;;;;;;;;;6095670;23;20108;-83
2023/12/09 09:54:23;;;;;;;39.80;24.67;;;;;;;;;;6122595;23;20008;-83
2023/12/09 09:56:51;;;;;;;31.20;20.08;;;;;;;;;;6100519;23;20017;-84
2023/12/09 09:59:17;;;;;;;45.10;24.43;;;;;;;;;;6104044;23;20010;-86
2023/12/09 10:01:44;;;;;;;36.03;21.90;;;;;;;;;;6102985;23;19998;-84
2023/12/09 10:04:13;;;;;;;33.83;21.75;;;;;;;;;;6124279;23;20050;-85
2023/12/09 10:06:40;;;;;;;28.90;17.73;;;;;;;;;;6092242;23;20006;-83
2023/12/09 10:09:05;;;;;;;31.30;20.23;;;;;;;;;;6121857;23;20014;-83
2023/12/09 10:11:30;;;;;;;29.85;19.30;;;;;;;;;;6097015;23;20006;-86
2023/12/09 10:16:29;;;;;;;25.27;17.05;;;;;;;;;;5082986;28;20786;-85
2023/12/09 10:18:56;;;;;;;24.67;16.10;;;;;;;;;;5065239;28;20024;-84
2023/12/09 10:21:21;;;;;;;25.58;16.58;;;;;;;;;;5049508;28;20025;-83
2023/12/09 10:23:47;;;;;;;25.83;17.10;;;;;;;;;;5044941;28;20071;-84
2023/12/09 10:26:14;;;;;;;23.02;14.95;;;;;;;;;;5058943;28;20048;-86
2023/12/09 10:28:39;;;;;;;23.50;15.60;;;;;;;;;;5065183;28;20036;-85
2023/12/09 10:31:07;;;;;;;27.08;18.30;;;;;;;;;;5065297;28;20478;-84
2023/12/09 10:33:32;;;;;;;23.80;16.13;;;;;;;;;;5067704;28;20021;-87
2023/12/09 10:35:59;;;;;;;46.65;30.70;;;;;;;;;;5062837;28;20550;-82
2023/12/09 10:38:24;;;;;;;27.63;19.83;;;;;;;;;;5062351;28;20017;-85
2023/12/09 10:40:50;;;;;;;23.13;16.52;;;;;;;;;;5049832;28;20071;-81
2023/12/09 10:43:16;;;;;;;30.23;20.70;;;;;;;;;;5055438;28;20465;-82
2023/12/09 10:45:42;;;;;;;26.33;18.00;;;;;;;;;;5064274;28;20040;-81
2023/12/09 10:48:08;;;;;;;22.15;15.82;;;;;;;;;;5064503;28;20017;-83
2023/12/09 10:50:35;;;;;;;18.55;13.48;;;;;;;;;;5063466;28;20398;-82
2023/12/09 10:53:00;;;;;;;21.85;15.32;;;;;;;;;;5043403;28;20078;-81
2023/12/09 10:55:25;;;;;;;19.13;13.27;;;;;;;;;;5043807;28;20532;-81
2023/12/09 10:57:53;;;;;;;22.48;15.55;;;;;;;;;;5059156;28;20029;-82
2023/12/09 11:00:19;;;;;;;21.92;14.98;;;;;;;;;;5056717;28;20041;-81
2023/12/09 11:02:46;;;;;;;23.25;16.02;;;;;;;;;;5048515;28;20024;-82
2023/12/09 11:05:12;;;;;;;24.15;15.90;;;;;;;;;;5063303;28;20139;-81
2023/12/09 11:07:38;;;;;;;23.45;16.15;;;;;;;;;;5063301;28;20024;-83
2023/12/09 11:10:06;;;;;;;21.77;15.18;;;;;;;;;;5062726;28;20369;-81
2023/12/09 11:12:31;;;;;;;25.92;17.45;;;;;;;;;;5054639;28;20494;-81
2023/12/09 11:15:15;;;;;;;23.88;17.55;;;;;;;;;;5044129;28;20053;-83
2023/12/09 11:17:43;;;;;;;23.83;17.48;;;;;;;;;;5049997;28;20064;-83
2023/12/09 11:20:15;;;;;;;21.10;14.93;;;;;;;;;;5062793;28;20070;-83
2023/12/09 11:22:41;;;;;;;23.58;15.15;;;;;;;;;;5062240;28;20021;-81
2023/12/09 11:25:26;;;;;;;20.40;14.65;;;;;;;;;;5054685;28;20395;-83
2023/12/09 11:27:52;;;;;;;19.17;13.27;;;;;;;;;;5020041;28;20037;-81
2023/12/09 11:30:36;;;;;;;21.95;14.80;;;;;;;;;;5030990;28;20563;-83
2023/12/09 11:33:02;;;;;;;24.00;15.63;;;;;;;;;;5031443;28;20029;-81
2023/12/09 11:35:28;;;;;;;28.23;18.67;;;;;;;;;;5029624;28;20029;-81
2023/12/09 11:37:54;;;;;;;24.13;16.63;;;;;;;;;;5035004;28;20369;-83
2023/12/09 11:40:21;;;;;;;27.80;19.38;;;;;;;;;;5029410;28;20392;-81
2023/12/09 11:42:48;;;;;;;21.88;14.77;;;;;;;;;;5041461;28;20024;-80
2023/12/09 11:45:14;;;;;;;29.75;20.95;;;;;;;;;;5048211;28;20071;-80
2023/12/09 11:47:40;;;;;;;37.00;23.92;;;;;;;;;;5049907;28;20424;-81
2023/12/09 11:50:07;;;;;;;28.88;19.67;;;;;;;;;;5027622;28;20045;-79
2023/12/09 11:52:32;;;;;;;23.48;14.90;;;;;;;;;;5022635;28;20029;-80
2023/12/09 11:54:58;;;;;;;34.13;22.42;;;;;;;;;;5014783;28;20112;-80
2023/12/09 11:57:24;;;;;;;23.00;14.02;;;;;;;;;;5015850;28;20026;-78
2023/12/09 11:59:51;;;;;;;21.13;13.77;;;;;;;;;;5023347;28;20022;-81
2023/12/09 12:02:16;;;;;;;18.58;13.05;;;;;;;;;;5020231;28;20045;-81
2023/12/09 12:04:41;;;;;;;21.20;14.18;;;;;;;;;;5020033;28;20026;-80
2023/12/09 12:07:08;;;;;;;20.65;15.45;;;;;;;;;;5017608;28;20468;-80
2023/12/09 12:09:33;;;;;;;21.20;14.30;;;;;;;;;;5024007;28;20025;-82
2023/12/09 12:11:58;;;;;;;19.38;13.65;;;;;;;;;;5019699;28;20112;-80
2023/12/09 12:14:24;;;;;;;21.58;15.13;;;;;;;;;;5024553;28;20168;-79
2023/12/09 12:16:50;;;;;;;21.67;16.10;;;;;;;;;;5019697;28;20067;-79
2023/12/09 12:19:16;;;;;;;19.67;14.85;;;;;;;;;;5022256;28;20030;-81
2023/12/09 12:21:41;;;;;;;21.85;16.73;;;;;;;;;;5019281;28;20014;-79
2023/12/09 12:24:08;;;;;;;23.40;17.02;;;;;;;;;;5025163;28;20029;-81
2023/12/09 12:26:33;;;;;;;17.73;12.88;;;;;;;;;;5022143;28;20036;-82
2023/12/09 12:28:59;;;;;;;13.18;9.85;;;;;;;;;;5024267;28;20112;-82
2023/12/09 12:31:25;;;;;;;16.50;12.65;;;;;;;;;;5017860;28;20352;-80
2023/12/09 12:33:50;;;;;;;22.33;16.20;;;;;;;;;;5031282;28;20021;-80
2023/12/09 12:36:16;;;;;;;11.52;9.20;;;;;;;;;;5018936;28;20032;-80
2023/12/09 12:38:44;;;;;;;12.55;9.30;;;;;;;;;;5017528;28;20029;-82
2023/12/09 12:41:09;;;;;;;12.20;9.85;;;;;;;;;;5017758;28;20056;-80
2023/12/09 12:43:35;;;;;;;14.73;9.85;;;;;;;;;;5020985;28;20061;-80
2023/12/09 12:46:00;;;;;;;11.38;9.23;;;;;;;;;;5014658;28;20033;-80
2023/12/09 12:48:26;;;;;;;11.57;8.95;;;;;;;;;;5023482;28;20127;-80
2023/12/09 12:50:51;;;;;;;11.80;9.38;;;;;;;;;;5018041;28;20025;-81
2023/12/09 12:53:17;;;;;;;11.55;9.13;;;;;;;;;;5018051;28;20099;-81
2023/12/09 12:55:43;;;;;;;15.63;12.48;;;;;;;;;;5018927;28;20316;-81
2023/12/09 12:58:09;;;;;;;14.07;11.32;;;;;;;;;;5019719;28;20032;-80
2023/12/09 13:00:34;;;;;;;10.73;8.88;;;;;;;;;;5015706;28;20032;-80
2023/12/09 13:03:00;;;;;;;10.88;9.15;;;;;;;;;;5026705;28;20021;-80
2023/12/09 13:05:25;;;;;;;11.23;9.55;;;;;;;;;;5047828;28;20075;-81
2023/12/09 13:07:51;;;;;;;13.90;9.10;;;;;;;;;;5049413;28;20032;-80
2023/12/09 13:10:17;;;;;;;11.43;8.80;;;;;;;;;;5047368;28;20399;-82
2023/12/09 13:12:43;;;;;;;11.93;8.65;;;;;;;;;;5048668;28;20060;-81
2023/12/09 13:15:08;;;;;;;10.02;8.68;;;;;;;;;;5047158;28;20457;-79
2023/12/09 13:17:34;;;;;;;11.52;9.50;;;;;;;;;;5034225;28;20053;-80
2023/12/09 13:20:01;;;;;;;10.90;8.80;;;;;;;;;;5016213;28;20476;-79
2023/12/09 13:22:26;;;;;;;11.43;8.85;;;;;;;;;;5021869;28;20153;-80
2023/12/09 13:24:51;;;;;;;11.98;8.60;;;;;;;;;;5032147;28;20137;-81
2023/12/09 13:27:17;;;;;;;12.88;9.55;;;;;;;;;;5024346;28;20029;-81
2023/12/09 13:29:43;;;;;;;14.60;10.13;;;;;;;;;;5027356;28;20041;-82
2023/12/09 13:32:09;;;;;;;14.40;10.77;;;;;;;;;;5024318;28;20551;-80
2023/12/09 13:34:34;;;;;;;14.63;11.30;;;;;;;;;;5034848;28;20032;-82
2023/12/09 13:37:00;;;;;;;14.70;10.90;;;;;;;;;;5027625;28;20130;-82
2023/12/09 13:39:25;;;;;;;15.43;11.48;;;;;;;;;;5022046;28;20125;-81
2023/12/09 13:41:51;;;;;;;17.65;12.45;;;;;;;;;;5015593;28;20471;-81
2023/12/09 13:44:18;;;;;;;15.77;11.88;;;;;;;;;;5016585;28;20022;-81
2023/12/09 13:46:44;;;;;;;20.45;14.68;;;;;;;;;;5016783;28;20022;-82
2023/12/09 13:49:09;;;;;;;35.03;24.45;;;;;;;;;;5014027;28;20028;-81
2023/12/09 13:51:35;;;;;;;28.45;20.95;;;;;;;;;;5008662;28;20022;-82
2023/12/09 13:54:00;;;;;;;55.65;34.22;;;;;;;;;;5017511;28;20032;-81
2023/12/09 13:56:25;;;;;;;62.08;37.22;;;;;;;;;;5024051;28;20175;-82
2023/12/09 13:58:51;;;;;;;20.88;14.93;;;;;;;;;;5028327;28;20029;-82
2023/12/09 14:01:16;;;;;;;28.00;19.80;;;;;;;;;;5024802;28;20033;-81
2023/12/09 14:03:41;;;;;;;26.58;19.45;;;;;;;;;;5025542;28;20029;-81
2023/12/09 14:06:07;;;;;;;22.25;15.88;;;;;;;;;;5012376;28;20369;-81
2023/12/09 14:08:32;;;;;;;33.53;23.83;;;;;;;;;;5006112;28;20129;-81